Time;durP1;ratioP1;P1;durP2;ratioP2;P2;SDS_P1;SDS_P2;PMS_P1;PMS_P2;Temp;Humidity;BMP_temperature;BMP_pressure;BME280_temperature;BME280_humidity;BME280_pressure;Samples;Min_cycle;Max_cycle;Signal;HPM_P1;HPM_P2
2024/01/29 05:41:33;;;;;;;67.00;27.90;;;;;;;0.24;100.00;102168.25;112891;1249;22260;-47
2024/01/29 05:44:00;;;;;;;69.80;28.00;;;;;;;0.22;100.00;102178.23;112876;1241;22208;-47
2024/01/29 05:46:26;;;;;;;63.30;28.20;;;;;;;0.19;100.00;102172.02;112914;1240;22410;-46
2024/01/29 05:48:53;;;;;;;63.10;27.90;;;;;;;0.13;100.00;102175.03;112912;1244;22469;-45
2024/01/29 05:51:20;;;;;;;71.90;30.50;;;;;;;0.07;100.00;102175.67;112893;1239;22380;-46
2024/01/29 05:53:47;;;;;;;62.10;27.80;;;;;;;0.03;100.00;102179.11;112902;1238;22261;-46
2024/01/29 05:56:13;;;;;;;67.30;26.00;;;;;;;-0.01;100.00;102182.11;112903;1240;22303;-47
2024/01/29 05:58:44;;;;;;;72.50;28.50;;;;;;;-0.04;100.00;102187.73;112944;1240;22438;-47
2024/01/29 06:01:12;;;;;;;63.00;26.70;;;;;;;-0.08;100.00;102191.55;112778;1249;22341;-51
2024/01/29 06:03:39;;;;;;;61.70;26.00;;;;;;;-0.11;100.00;102188.96;112921;1248;22376;-46
2024/01/29 06:06:06;;;;;;;59.00;25.90;;;;;;;-0.13;100.00;102190.83;112952;1239;22374;-51
2024/01/29 06:08:34;;;;;;;61.10;27.10;;;;;;;-0.14;100.00;102191.25;112934;1245;22345;-50
2024/01/29 06:11:01;;;;;;;68.00;28.40;;;;;;;-0.14;100.00;102195.88;112934;1240;23196;-50
2024/01/29 06:13:27;;;;;;;64.00;26.80;;;;;;;-0.13;100.00;102197.35;112874;1247;22961;-51
2024/01/29 06:15:54;;;;;;;64.70;27.30;;;;;;;-0.11;100.00;102207.97;112865;1246;23600;-47
2024/01/29 06:18:21;;;;;;;62.30;25.80;;;;;;;-0.07;100.00;102209.28;112822;1249;22391;-49
2024/01/29 06:20:49;;;;;;;66.80;27.50;;;;;;;-0.03;100.00;102214.41;112788;1243;22377;-51
2024/01/29 06:23:17;;;;;;;58.90;26.50;;;;;;;0.02;100.00;102219.03;112768;1243;22533;-51
2024/01/29 06:25:51;;;;;;;62.90;28.40;;;;;;;0.08;100.00;102212.75;112840;1249;23122;-48
2024/01/29 06:36:16;;;;;;;54.80;24.00;;;;;;;0.26;100.00;102238.97;112864;1249;22461;-47
2024/01/29 06:39:39;;;;;;;62.60;23.70;;;;;;;0.32;100.00;102250.88;112585;1249;22444;-48
2024/01/29 06:42:57;;;;;;;62.70;25.90;;;;;;;0.40;100.00;102252.02;112856;1239;22324;-49
2024/01/29 06:50:15;;;;;;;55.60;23.80;;;;;;;0.60;100.00;102251.52;112835;1249;22476;-49
2024/01/29 06:53:39;;;;;;;52.40;22.60;;;;;;;0.63;100.00;102262.70;112648;1249;22247;-50
2024/01/29 06:56:06;;;;;;;49.30;22.90;;;;;;;0.68;100.00;102262.60;112811;1240;22707;-51
2024/01/29 07:02:52;;;;;;;56.40;24.50;;;;;;;0.78;100.00;102273.10;112679;1249;22913;-46
2024/01/29 07:05:52;;;;;;;;;;;;;;;0.86;100.00;102277.39;112565;1249;22391;-46
2024/01/29 07:19:48;;;;;;;51.60;23.70;;;;;;;0.87;100.00;102274.54;112630;1244;22360;-47
2024/01/29 07:22:37;;;;;;;42.10;20.40;;;;;;;0.86;100.00;102279.16;112642;1249;22403;-53
2024/01/29 07:25:15;;;;;;;61.70;23.40;;;;;;;0.86;100.00;102280.50;112664;1248;22263;-52
2024/01/29 07:28:07;;;;;;;60.70;25.40;;;;;;;0.86;100.00;102287.07;112766;1247;22432;-52
2024/01/29 07:36:30;;;;;;;55.20;24.80;;;;;;;0.89;100.00;102295.86;112758;1247;22442;-50
2024/01/29 07:39:24;;;;;;;54.60;23.60;;;;;;;0.94;100.00;102295.52;112825;1247;22362;-46
2024/01/29 07:42:40;;;;;;;50.80;22.00;;;;;;;1.01;100.00;102296.34;112863;1247;22247;-50
2024/01/29 07:45:25;;;;;;;52.20;23.60;;;;;;;1.07;100.00;102300.71;112545;1240;296556;-52
2024/01/29 07:48:27;;;;;;;59.70;24.80;;;;;;;1.12;100.00;102300.38;112780;1249;22375;-48
2024/01/29 07:54:21;;;;;;;58.00;25.30;;;;;;;1.18;100.00;102311.46;112676;1249;23367;-49
2024/01/29 07:57:43;;;;;;;47.80;22.30;;;;;;;1.20;100.00;102313.98;112611;1241;22350;-48
2024/01/29 08:00:39;;;;;;;53.80;23.90;;;;;;;1.23;100.00;102319.03;112409;1249;22429;-48
2024/01/29 08:03:23;;;;;;;51.00;23.00;;;;;;;1.21;100.00;102322.32;112530;1249;23257;-53
2024/01/29 08:06:26;;;;;;;50.90;21.90;;;;;;;1.20;100.00;102327.96;112463;1249;23786;-54
2024/01/29 08:09:22;;;;;;;61.80;25.60;;;;;;;1.23;100.00;102330.04;112448;1249;22470;-48
2024/01/29 08:12:14;;;;;;;55.30;23.90;;;;;;;1.21;100.00;102333.71;112613;1249;22410;-53
2024/01/29 08:14:59;;;;;;;55.30;24.20;;;;;;;1.23;100.00;102336.07;112763;1249;22371;-48
2024/01/29 08:17:56;;;;;;;48.80;21.80;;;;;;;1.27;100.00;102345.42;112814;1249;23453;-53
2024/01/29 08:20:44;;;;;;;53.40;22.60;;;;;;;1.28;100.00;102347.09;112794;1249;22437;-53
2024/01/29 08:23:17;;;;;;;58.80;24.20;;;;;;;1.29;100.00;102352.83;112642;1249;22911;-48
2024/01/29 08:25:44;;;;;;;53.40;24.20;;;;;;;1.29;100.00;102355.90;112888;1249;22362;-53
2024/01/29 08:28:12;;;;;;;55.80;24.30;;;;;;;1.33;100.00;102356.86;112847;1249;22255;-52
2024/01/29 08:30:39;;;;;;;55.00;25.00;;;;;;;1.37;100.00;102359.55;112838;1249;22370;-51
2024/01/29 08:33:06;;;;;;;50.60;22.70;;;;;;;1.38;100.00;102356.66;112878;1249;22941;-52
2024/01/29 08:35:37;;;;;;;59.50;24.40;;;;;;;1.35;100.00;102361.50;112787;1249;23408;-48
2024/01/29 08:38:10;;;;;;;74.80;30.40;;;;;;;1.31;100.00;102364.98;112498;1249;22265;-53
2024/01/29 08:40:41;;;;;;;69.10;28.40;;;;;;;1.29;100.00;102367.80;112197;1249;22244;-52
2024/01/29 08:43:53;;;;;;;61.00;24.90;;;;;;;1.30;100.00;102370.46;112392;1241;22258;-51
2024/01/29 08:50:20;;;;;;;70.50;32.40;;;;;;;1.27;100.00;102377.92;112625;1249;22348;-48
2024/01/29 08:53:25;;;;;;;64.50;27.50;;;;;;;1.27;100.00;102380.18;112481;1249;22384;-62
2024/01/29 08:55:58;;;;;;;49.10;24.20;;;;;;;1.30;100.00;102377.33;112804;1249;22903;-53
2024/01/29 08:58:50;;;;;;;56.60;25.80;;;;;;;1.37;100.00;102382.55;112754;1249;23037;-52
2024/01/29 09:01:50;;;;;;;58.60;25.00;;;;;;;1.42;100.00;102377.94;112851;1249;22405;-52
2024/01/29 09:05:05;;;;;;;59.60;24.90;;;;;;;1.45;100.00;102379.26;112642;1249;22877;-48
2024/01/29 09:07:36;;;;;;;57.40;26.60;;;;;;;1.48;100.00;102381.15;112745;1241;22915;-52
2024/01/29 09:10:03;;;;;;;63.70;26.50;;;;;;;1.53;100.00;102381.48;112653;1249;22362;-48
2024/01/29 09:12:31;;;;;;;59.40;26.20;;;;;;;1.56;100.00;102379.50;112890;1249;23152;-52
2024/01/29 09:14:58;;;;;;;56.20;25.40;;;;;;;1.57;100.00;102383.30;112874;1247;22258;-52
2024/01/29 09:17:25;;;;;;;48.40;21.90;;;;;;;1.58;100.00;102376.52;112903;1249;22381;-48
2024/01/29 09:19:52;;;;;;;58.90;24.80;;;;;;;1.59;100.00;102376.80;112946;1245;22422;-47
2024/01/29 09:22:19;;;;;;;58.90;25.10;;;;;;;1.61;100.00;102377.55;112880;1249;22381;-47
2024/01/29 09:24:46;;;;;;;52.80;24.60;;;;;;;1.63;100.00;102381.83;112799;1240;23059;-51
2024/01/29 09:27:25;;;;;;;47.80;22.70;;;;;;;1.62;100.00;102388.31;112509;1249;22352;-51
2024/01/29 09:30:49;;;;;;;54.10;23.70;;;;;;;1.63;100.00;102391.13;112343;1249;23206;-52
2024/01/29 09:33:46;;;;;;;51.10;23.30;;;;;;;1.60;100.00;102389.69;112734;1249;23369;-48
2024/01/29 09:37:42;;;;;;;55.30;21.40;;;;;;;1.62;100.00;102392.92;112676;1249;22467;-52
2024/01/29 09:40:13;;;;;;;54.10;23.70;;;;;;;1.68;100.00;102395.23;112562;1249;22517;-51
2024/01/29 09:42:43;;;;;;;49.10;22.70;;;;;;;1.69;100.00;102395.70;112556;1249;23172;-47
2024/01/29 09:45:13;;;;;;;58.20;25.50;;;;;;;1.74;100.00;102393.79;112426;1249;22407;-48
2024/01/29 09:50:34;;;;;;;60.00;23.30;;;;;;;1.87;100.00;102390.20;112562;1249;22458;-47
2024/01/29 09:53:32;;;;;;;56.20;23.40;;;;;;;1.90;100.00;102389.52;112523;1249;22288;-50
2024/01/29 10:04:04;;;;;;;61.50;25.40;;;;;;;2.13;100.00;102384.23;112452;1249;23548;-53
2024/01/29 10:06:45;;;;;;;53.30;22.20;;;;;;;2.26;100.00;102379.20;112618;1249;23152;-53
2024/01/29 10:09:13;;;;;;;45.00;21.00;;;;;;;2.31;100.00;102377.80;112917;1249;22394;-48
2024/01/29 10:11:42;;;;;;;51.10;22.60;;;;;;;2.37;100.00;102378.59;112713;1249;22464;-47
2024/01/29 10:14:10;;;;;;;51.00;21.80;;;;;;;2.44;100.00;102373.55;112692;1249;22376;-48
2024/01/29 10:16:37;;;;;;;51.20;23.50;;;;;;;2.47;100.00;102371.48;112872;1249;22386;-48
2024/01/29 10:19:05;;;;;;;53.70;24.30;;;;;;;2.49;100.00;102372.83;112763;1238;22259;-48
2024/01/29 10:21:38;;;;;;;55.10;23.00;;;;;;;2.59;100.00;102372.27;112596;1244;22801;-54
2024/01/29 10:24:17;;;;;;;47.30;21.20;;;;;;;2.72;100.00;102370.55;112579;1249;23197;-47
2024/01/29 10:27:07;;;;;;;49.10;20.60;;;;;;;2.88;100.00;102368.45;112231;1249;23338;-47
2024/01/29 10:29:47;;;;;;;45.20;20.80;;;;;;;3.02;100.00;102371.07;112575;1249;22422;-47
2024/01/29 10:32:14;;;;;;;45.40;19.70;;;;;;;3.14;100.00;102369.91;112560;1249;22366;-47
2024/01/29 10:34:41;;;;;;;42.30;19.90;;;;;;;3.23;100.00;102367.90;112550;1249;23247;-49
2024/01/29 10:37:09;;;;;;;41.70;19.50;;;;;;;3.28;100.00;102366.84;112720;1249;22383;-48
2024/01/29 10:39:38;;;;;;;43.50;20.60;;;;;;;3.38;100.00;102365.91;112532;1249;22347;-47
2024/01/29 10:42:21;;;;;;;43.90;19.70;;;;;;;3.52;100.00;102369.02;112731;1249;22407;-48
2024/01/29 10:44:53;;;;;;;49.80;21.40;;;;;;;3.60;99.91;102364.17;112167;1241;22785;-47
2024/01/29 10:47:35;;;;;;;49.90;21.50;;;;;;;3.68;99.19;102362.77;112584;1249;22787;-47
2024/01/29 10:57:15;;;;;;;44.70;22.30;;;;;;;4.63;95.15;102363.36;112628;1249;22378;-49
2024/01/29 11:00:14;;;;;;;35.30;18.10;;;;;;;4.60;92.86;102360.59;112559;1249;22981;-52
2024/01/29 11:02:58;;;;;;;34.70;19.10;;;;;;;4.44;92.16;102358.65;112365;1249;22199;-48
2024/01/29 11:06:04;;;;;;;34.30;17.40;;;;;;;4.30;92.05;102357.97;112263;1249;22243;-49
2024/01/29 11:08:39;;;;;;;37.80;19.10;;;;;;;4.21;92.34;102365.23;112817;1249;22389;-47
2024/01/29 11:11:14;;;;;;;37.60;18.00;;;;;;;4.11;92.69;102364.83;112602;1249;22385;-47
2024/01/29 11:14:01;;;;;;;37.90;17.90;;;;;;;4.03;92.88;102359.31;112484;1249;23116;-47
2024/01/29 11:16:29;;;;;;;32.50;15.50;;;;;;;4.01;93.00;102361.11;112686;1249;22837;-48
2024/01/29 11:19:05;;;;;;;37.00;16.80;;;;;;;3.99;92.84;102357.19;112877;1249;22366;-48
2024/01/29 11:21:59;;;;;;;34.80;17.00;;;;;;;3.97;92.63;102358.12;112933;1249;22294;-47
2024/01/29 11:24:32;;;;;;;37.00;16.60;;;;;;;4.01;93.42;102355.22;112701;1249;22507;-48
2024/01/29 11:27:07;;;;;;;39.60;17.30;;;;;;;4.16;93.74;102360.63;112584;1249;23168;-48
2024/01/29 11:29:37;;;;;;;31.50;15.70;;;;;;;4.39;93.47;102362.30;112714;1249;23011;-48
2024/01/29 11:32:15;;;;;;;38.10;16.90;;;;;;;4.76;92.20;102364.05;112842;1249;22458;-47
2024/01/29 11:34:42;;;;;;;32.90;15.80;;;;;;;5.35;91.42;102356.40;112779;1249;23196;-47
2024/01/29 11:37:09;;;;;;;29.60;14.40;;;;;;;5.77;89.26;102357.77;112608;1248;23362;-48
2024/01/29 11:39:43;;;;;;;27.10;15.50;;;;;;;5.93;86.75;102353.95;112516;1239;22470;-48
2024/01/29 11:53:28;;;;;;;26.90;12.20;;;;;;;5.29;84.17;102361.50;112680;1249;22180;-53
2024/01/29 12:13:47;;;;;;;24.60;12.60;;;;;;;3.91;87.00;102382.80;112739;1249;22233;-49
2024/01/29 12:16:39;;;;;;;25.70;10.60;;;;;;;3.84;87.62;102380.98;112426;1249;22990;-52
2024/01/29 12:19:12;;;;;;;19.30;9.90;;;;;;;3.83;87.52;102387.33;112568;1249;22823;-52
2024/01/29 12:21:58;;;;;;;25.20;12.40;;;;;;;3.87;87.84;102387.90;112758;1249;22354;-48
2024/01/29 12:24:39;;;;;;;31.00;13.40;;;;;;;3.92;88.39;102392.71;112816;1249;22434;-50
2024/01/29 12:27:08;;;;;;;24.80;12.80;;;;;;;3.94;88.39;102395.56;112542;1249;22409;-47
2024/01/29 12:29:36;;;;;;;23.90;13.10;;;;;;;3.94;88.57;102393.67;112770;1248;22469;-46
2024/01/29 12:32:11;;;;;;;21.90;10.80;;;;;;;3.99;88.47;102398.98;112778;1249;22387;-47
2024/01/29 12:34:43;;;;;;;28.20;14.00;;;;;;;4.07;88.33;102397.69;112548;1249;22339;-47
2024/01/29 12:37:21;;;;;;;24.60;13.10;;;;;;;4.14;88.50;102402.31;112642;1249;23152;-47
2024/01/29 12:40:00;;;;;;;29.20;12.30;;;;;;;4.22;88.19;102405.39;112683;1245;22445;-49
2024/01/29 12:42:46;;;;;;;19.60;11.00;;;;;;;4.23;87.15;102403.94;112700;1249;22442;-55
2024/01/29 12:45:26;;;;;;;20.70;11.10;;;;;;;4.24;86.97;102407.59;112763;1246;22309;-55
2024/01/29 12:48:19;;;;;;;18.90;10.40;;;;;;;4.27;86.78;102407.19;112620;1249;22405;-47
2024/01/29 12:50:48;;;;;;;20.90;11.10;;;;;;;4.28;86.37;102406.04;112641;1249;23507;-51
2024/01/29 12:53:18;;;;;;;21.80;10.70;;;;;;;4.24;86.38;102411.91;112685;1249;22388;-53
2024/01/29 12:55:49;;;;;;;20.40;9.60;;;;;;;4.22;86.09;102414.85;112725;1249;22456;-46
2024/01/29 12:58:17;;;;;;;18.20;9.80;;;;;;;4.18;85.97;102414.30;112770;1249;22476;-52
2024/01/29 13:00:45;;;;;;;19.90;10.50;;;;;;;4.14;85.53;102415.58;112897;1249;22413;-46
2024/01/29 13:03:13;;;;;;;24.70;12.40;;;;;;;4.11;85.52;102423.00;112935;1249;23215;-55
2024/01/29 13:05:40;;;;;;;25.80;12.10;;;;;;;4.07;85.96;102420.88;112892;1249;22999;-49
2024/01/29 13:08:07;;;;;;;27.80;13.40;;;;;;;4.01;85.87;102421.70;112917;1249;22395;-49
2024/01/29 13:10:34;;;;;;;24.70;11.40;;;;;;;3.94;86.28;102421.65;112963;1249;22418;-55
2024/01/29 13:13:06;;;;;;;23.70;10.30;;;;;;;3.94;86.75;102425.30;112906;1249;22750;-56
2024/01/29 13:15:35;;;;;;;22.90;11.00;;;;;;;3.98;86.79;102428.27;112917;1249;22337;-55
2024/01/29 13:18:02;;;;;;;20.50;11.30;;;;;;;4.03;86.75;102432.52;112903;1249;23256;-54
2024/01/29 13:20:30;;;;;;;22.20;11.00;;;;;;;4.06;86.82;102435.31;112929;1249;23559;-56
2024/01/29 13:22:57;;;;;;;25.00;11.90;;;;;;;4.05;86.64;102436.84;112954;1249;22387;-47
2024/01/29 13:25:24;;;;;;;22.30;11.80;;;;;;;4.06;86.72;102436.84;112910;1249;22219;-54
2024/01/29 13:27:52;;;;;;;19.70;10.40;;;;;;;4.00;86.36;102431.84;112905;1249;22462;-55
2024/01/29 13:30:19;;;;;;;24.50;11.60;;;;;;;3.92;86.16;102433.48;112881;1249;22394;-54
2024/01/29 13:32:46;;;;;;;23.60;11.60;;;;;;;3.85;86.34;102437.50;112956;1249;22341;-48
2024/01/29 13:35:13;;;;;;;24.20;13.10;;;;;;;3.79;86.81;102439.36;112951;1249;22974;-54
2024/01/29 13:37:40;;;;;;;21.70;12.00;;;;;;;3.84;86.89;102440.02;112927;1249;23587;-50
2024/01/29 13:40:07;;;;;;;22.70;12.40;;;;;;;3.92;86.53;102438.48;112952;1241;22544;-54
2024/01/29 13:42:35;;;;;;;19.50;11.20;;;;;;;4.08;86.17;102437.16;112916;1249;22410;-54
2024/01/29 13:45:04;;;;;;;18.90;10.20;;;;;;;4.13;86.02;102437.98;112882;1249;22945;-54
2024/01/29 13:47:33;;;;;;;18.90;9.90;;;;;;;4.07;85.76;102438.84;112670;1249;23247;-53
2024/01/29 13:50:02;;;;;;;21.30;10.30;;;;;;;3.97;85.73;102443.94;112902;1249;22383;-50
2024/01/29 13:52:29;;;;;;;20.40;9.80;;;;;;;3.84;85.83;102446.73;112886;1249;22401;-53
2024/01/29 13:54:56;;;;;;;25.10;12.70;;;;;;;3.68;85.74;102453.18;112893;1249;23248;-55
2024/01/29 13:57:25;;;;;;;18.10;10.40;;;;;;;3.51;85.93;102455.77;112912;1249;22385;-47
2024/01/29 13:59:51;;;;;;;24.90;11.80;;;;;;;3.34;86.33;102454.99;112948;1249;22444;-48
2024/01/29 14:02:19;;;;;;;18.70;9.70;;;;;;;3.19;86.78;102455.27;112959;1249;22405;-55
2024/01/29 14:04:45;;;;;;;18.20;10.90;;;;;;;3.04;87.31;102455.71;112983;1249;22379;-55
2024/01/29 14:07:13;;;;;;;20.30;10.80;;;;;;;2.92;87.63;102460.26;112973;1249;22428;-48
2024/01/29 14:09:40;;;;;;;22.70;12.50;;;;;;;2.80;88.40;102457.72;112999;1249;23015;-49
2024/01/29 14:12:07;;;;;;;35.90;13.20;;;;;;;2.66;89.16;102456.48;112961;1249;22443;-50
2024/01/29 14:14:33;;;;;;;23.70;11.80;;;;;;;2.62;90.31;102456.77;112992;1249;22381;-54
2024/01/29 14:17:13;;;;;;;24.10;12.40;;;;;;;2.74;90.86;102449.39;113065;1249;22422;-48
2024/01/29 14:19:40;;;;;;;30.60;14.60;;;;;;;2.85;90.70;102450.30;113023;1249;22229;-56
